createdAt,value
2022-08-24T00:01:06.429Z,2.20
2022-08-24T00:06:12.187Z,2.50
2022-08-24T00:11:13.852Z,3.08
2022-08-24T00:16:16.534Z,2.60
2022-08-24T00:21:19.403Z,2.72
2022-08-24T00:26:28.962Z,2.35
2022-08-24T00:31:31.128Z,2.80
2022-08-24T00:36:34.059Z,3.08
2022-08-24T00:41:39.695Z,2.90
2022-08-24T00:46:59.056Z,3.20
2022-08-24T00:52:12.752Z,3.05
2022-08-24T00:57:19.269Z,3.50
2022-08-24T01:02:26.482Z,3.05
2022-08-24T01:07:30.972Z,3.20
2022-08-24T01:12:34.533Z,2.80
2022-08-24T01:17:55.748Z,3.05
2022-08-24T01:23:36.666Z,2.95
2022-08-24T01:28:41.140Z,2.60
2022-08-24T01:33:43.183Z,2.95
2022-08-24T01:38:46.645Z,2.72
2022-08-24T01:43:48.320Z,2.83
2022-08-24T01:48:50.102Z,3.22
2022-08-24T01:53:51.867Z,2.70
2022-08-24T01:58:54.097Z,3.13
2022-08-24T02:03:58.697Z,2.70
2022-08-24T02:09:01.266Z,3.15
2022-08-24T02:14:04.079Z,3.40
2022-08-24T02:19:08.824Z,3.67
2022-08-24T02:24:10.766Z,4.07
2022-08-24T02:29:12.928Z,3.72
2022-08-24T02:34:14.718Z,3.90
2022-08-24T02:39:16.453Z,3.97
2022-08-24T02:44:21.501Z,4.00
2022-08-24T02:49:24.026Z,4.00
2022-08-24T02:54:25.977Z,4.57
2022-08-24T02:59:27.693Z,3.80
2022-08-24T03:04:29.850Z,4.63
2022-08-24T03:09:31.609Z,4.38
2022-08-24T03:14:35.612Z,4.35
2022-08-24T03:19:37.438Z,4.78
2022-08-24T03:24:41.306Z,4.45
2022-08-24T03:29:43.069Z,4.82
2022-08-24T03:34:45.893Z,4.88
2022-08-24T03:39:48.318Z,4.95
2022-08-24T03:44:50.114Z,4.90
2022-08-24T03:49:53.802Z,4.95
2022-08-24T03:54:55.695Z,4.80
2022-08-24T03:59:57.709Z,4.45
2022-08-24T04:04:59.638Z,5.65
2022-08-24T04:10:01.848Z,5.10
2022-08-24T04:15:05.133Z,5.05
2022-08-24T04:20:07.894Z,4.72
2022-08-24T04:25:13.591Z,5.05
2022-08-24T04:30:15.278Z,5.22
2022-08-24T04:35:41.201Z,5.68
2022-08-24T04:40:45.379Z,5.10
2022-08-24T04:45:50.540Z,5.60
2022-08-24T04:50:53.760Z,6.00
2022-08-24T04:55:55.444Z,5.38
2022-08-24T05:00:57.422Z,5.70
2022-08-24T05:05:59.761Z,5.25
2022-08-24T05:11:07.492Z,6.43
2022-08-24T05:16:12.773Z,5.40
2022-08-24T05:21:19.324Z,5.40
2022-08-24T05:26:26.322Z,5.85
2022-08-24T05:31:31.499Z,6.32
2022-08-24T05:36:38.811Z,5.65
2022-08-24T05:41:44.595Z,6.40
2022-08-24T05:46:58.440Z,6.68
2022-08-24T05:52:00.273Z,6.25
2022-08-24T05:57:04.638Z,5.70
2022-08-24T06:02:11.663Z,5.55
2022-08-24T06:07:14.553Z,5.45
2022-08-24T06:12:20.958Z,5.43
2022-08-24T06:17:23.254Z,5.00
2022-08-24T06:22:26.515Z,5.70
2022-08-24T06:27:29.507Z,5.97
2022-08-24T06:32:33.336Z,6.18
2022-08-24T06:37:35.276Z,6.28
2022-08-24T06:42:37.288Z,5.97
2022-08-24T06:47:50.887Z,5.70
2022-08-24T06:52:54.067Z,5.72
2022-08-24T06:57:55.784Z,5.82
2022-08-24T07:02:57.513Z,5.32
2022-08-24T07:07:59.845Z,5.10
2022-08-24T07:13:01.653Z,4.60
2022-08-24T07:18:03.527Z,4.90
2022-08-24T07:23:06.400Z,4.47
2022-08-24T07:28:10.218Z,5.55
2022-08-24T07:33:14.830Z,4.95
2022-08-24T07:38:16.694Z,4.32
2022-08-24T07:43:18.530Z,4.18
2022-08-24T07:48:20.251Z,4.30
2022-08-24T07:53:27.858Z,4.03
2022-08-24T07:58:35.533Z,5.90
2022-08-24T08:03:38.264Z,4.43
2022-08-24T08:08:41.505Z,4.38
2022-08-24T08:18:56.525Z,3.90
2022-08-24T08:24:20.682Z,4.00
2022-08-24T08:29:31.529Z,3.67
2022-08-24T08:34:33.605Z,3.95
2022-08-24T08:39:35.688Z,3.78
2022-08-24T08:45:00.427Z,3.45
2022-08-24T08:50:25.854Z,3.90
2022-08-24T08:55:32.607Z,3.80
2022-08-24T09:00:50.440Z,4.30
2022-08-24T09:06:35.330Z,3.28
2022-08-24T09:11:52.208Z,3.37
2022-08-24T09:17:20.337Z,3.05
2022-08-24T09:22:22.141Z,3.30
2022-08-24T09:27:33.036Z,4.07
2022-08-24T09:33:06.434Z,2.80
2022-08-24T09:38:35.509Z,3.00
2022-08-24T09:43:58.360Z,3.38
2022-08-24T09:49:33.488Z,3.03
2022-08-24T09:55:04.908Z,2.80
2022-08-24T10:00:17.111Z,2.85
2022-08-24T10:05:33.494Z,2.70
2022-08-24T10:10:58.934Z,2.28
2022-08-24T10:16:17.083Z,2.80
2022-08-24T10:21:40.062Z,2.70
2022-08-24T10:26:57.038Z,2.40
2022-08-24T10:32:17.542Z,2.15
2022-08-24T10:38:23.109Z,2.00
2022-08-24T10:43:53.418Z,2.35
2022-08-24T10:49:11.495Z,2.60
2022-08-24T10:54:19.548Z,2.53
2022-08-24T11:00:01.891Z,2.63
2022-08-24T11:05:09.367Z,3.00
2022-08-24T11:10:24.043Z,2.63
2022-08-24T11:15:29.657Z,3.22
2022-08-24T11:20:40.634Z,3.33
2022-08-24T11:25:53.355Z,2.92
2022-08-24T11:30:55.087Z,2.72
2022-08-24T11:35:57.988Z,3.08
2022-08-24T11:41:14.625Z,3.05
2022-08-24T11:46:52.165Z,3.15
2022-08-24T11:52:38.356Z,3.33
2022-08-24T11:57:55.185Z,3.42
2022-08-24T12:03:25.011Z,3.47
2022-08-24T12:08:44.800Z,3.35
2022-08-24T12:13:57.338Z,4.07
2022-08-24T12:19:11.833Z,3.50
2022-08-24T12:24:41.298Z,4.28
2022-08-24T12:29:48.294Z,3.53
2022-08-24T12:35:01.491Z,3.80
2022-08-24T12:40:08.761Z,3.60
2022-08-24T12:45:17.159Z,4.18
2022-08-24T12:50:33.930Z,4.28
2022-08-24T12:56:04.100Z,4.03
2022-08-24T13:01:07.173Z,3.88
2022-08-24T13:06:16.599Z,4.43
2022-08-24T13:11:24.365Z,4.45
2022-08-24T13:16:44.986Z,3.85
2022-08-24T13:21:57.271Z,3.80
2022-08-24T13:27:18.820Z,4.25
2022-08-24T13:32:35.311Z,4.90
2022-08-24T13:37:38.492Z,3.85
2022-08-24T13:42:46.388Z,4.35
2022-08-24T13:48:04.346Z,4.22
2022-08-24T13:58:56.119Z,4.07
2022-08-24T14:04:26.260Z,4.13
2022-08-24T14:10:01.913Z,4.00
2022-08-24T14:15:21.757Z,3.83
2022-08-24T14:20:41.561Z,3.78
2022-08-24T14:25:44.757Z,3.72
2022-08-24T14:30:47.126Z,3.75
2022-08-24T14:36:14.881Z,3.67
2022-08-24T14:41:34.562Z,3.92
2022-08-24T14:47:04.525Z,3.42
2022-08-24T14:52:26.587Z,3.90
2022-08-24T14:57:56.754Z,3.85
2022-08-24T15:03:15.165Z,4.25
2022-08-24T15:08:33.121Z,3.67
2022-08-24T15:14:05.348Z,3.83
2022-08-24T15:19:27.390Z,3.92
2022-08-24T15:24:52.619Z,3.63
2022-08-24T15:29:56.043Z,3.67
2022-08-24T15:34:58.437Z,3.90
2022-08-24T15:40:01.777Z,3.50
2022-08-24T15:45:04.709Z,3.45
2022-08-24T15:50:19.243Z,3.58
2022-08-24T15:55:26.788Z,3.67
2022-08-24T16:00:55.517Z,3.20
2022-08-24T16:06:18.139Z,3.60
2022-08-24T16:11:27.983Z,3.20
2022-08-24T16:16:34.483Z,3.00
2022-08-24T16:21:51.251Z,3.15
2022-08-24T16:27:05.520Z,3.30
2022-08-24T16:32:23.096Z,3.40
2022-08-24T16:37:32.316Z,3.85
2022-08-24T16:42:34.988Z,3.35
2022-08-24T16:47:36.995Z,3.13
2022-08-24T16:52:38.908Z,3.90
2022-08-24T16:57:40.587Z,3.40
2022-08-24T17:02:42.867Z,3.30
2022-08-24T17:07:45.085Z,3.35
2022-08-24T17:12:47.114Z,3.42
2022-08-24T17:18:00.064Z,2.90
2022-08-24T17:23:02.136Z,2.53
2022-08-24T17:28:04.538Z,2.53
2022-08-24T17:33:06.219Z,2.65
2022-08-24T17:38:08.704Z,3.00
2022-08-24T17:43:10.592Z,3.05
2022-08-24T17:48:20.881Z,3.10
2022-08-24T17:53:22.568Z,2.95
2022-08-24T17:58:24.368Z,2.92
2022-08-24T18:03:26.175Z,3.70
2022-08-24T18:08:27.790Z,3.05
2022-08-24T18:13:29.624Z,3.20
2022-08-24T18:18:31.327Z,3.33
2022-08-24T18:23:33.120Z,3.80
2022-08-24T18:28:36.916Z,3.65
2022-08-24T18:33:38.581Z,3.90
2022-08-24T18:38:40.776Z,3.63
2022-08-24T18:43:42.670Z,4.22
2022-08-24T18:48:44.228Z,4.20
2022-08-24T18:53:46.391Z,4.03
2022-08-24T18:58:48.254Z,3.90
2022-08-24T19:03:50.465Z,4.68
2022-08-24T19:08:52.202Z,4.25
2022-08-24T19:13:53.856Z,3.75
2022-08-24T19:18:55.609Z,4.43
2022-08-24T19:23:58.530Z,3.85
2022-08-24T19:29:00.394Z,4.60
2022-08-24T19:34:03.446Z,3.70
2022-08-24T19:39:05.693Z,3.55
2022-08-24T19:44:27.562Z,4.47
2022-08-24T19:49:29.891Z,4.20
2022-08-24T19:54:35.749Z,4.07
2022-08-24T19:59:43.832Z,4.50
2022-08-24T20:09:47.210Z,4.78
2022-08-24T20:14:49.087Z,4.20
2022-08-24T20:19:51.496Z,4.28
2022-08-24T20:24:53.562Z,4.70
2022-08-24T20:29:56.034Z,4.63
2022-08-24T20:34:58.064Z,5.25
2022-08-24T20:40:00.629Z,4.40
2022-08-24T20:45:02.525Z,4.65
2022-08-24T20:50:04.727Z,4.65
2022-08-24T20:55:06.848Z,4.50
2022-08-24T21:00:11.000Z,4.90
2022-08-24T21:05:13.191Z,4.95
2022-08-24T21:10:19.679Z,4.97
2022-08-24T21:15:23.591Z,4.63
2022-08-24T21:20:25.750Z,4.05
2022-08-24T21:25:27.578Z,5.53
2022-08-24T21:30:30.407Z,4.43
2022-08-24T21:35:32.639Z,4.85
2022-08-24T21:40:35.628Z,4.72
2022-08-24T21:45:37.452Z,4.60
2022-08-24T21:50:39.095Z,4.75
2022-08-24T21:55:41.912Z,5.30
2022-08-24T22:00:44.081Z,4.93
2022-08-24T22:05:45.856Z,4.63
2022-08-24T22:10:48.956Z,4.88
2022-08-24T22:15:50.747Z,4.55
2022-08-24T22:20:52.619Z,4.85
2022-08-24T22:25:54.566Z,4.80
2022-08-24T22:30:56.804Z,4.80
2022-08-24T22:35:58.627Z,5.30
2022-08-24T22:41:00.207Z,5.22
2022-08-24T22:46:01.846Z,4.93
2022-08-24T22:51:08.224Z,4.78
2022-08-24T22:56:27.674Z,5.13
2022-08-24T23:01:37.415Z,5.13
2022-08-24T23:06:39.389Z,4.85
2022-08-24T23:11:41.349Z,5.50
2022-08-24T23:16:45.092Z,5.32
2022-08-24T23:21:46.926Z,5.55
2022-08-24T23:26:49.445Z,5.72
2022-08-24T23:31:53.685Z,5.72
2022-08-24T23:36:55.789Z,5.50
2022-08-24T23:41:57.926Z,5.97
2022-08-24T23:47:00.500Z,6.07
2022-08-24T23:52:02.313Z,6.53
2022-08-24T23:57:09.053Z,5.82
